sensor_id;sensor_type;location;lat;lon;timestamp;pressure;altitude;pressure_sealevel;temperature;humidity
32320;BME280;19080;51.750;5.888;2023-03-18T00:00:44;100491.06;;;12.21;100.00
32320;BME280;19080;51.750;5.888;2023-03-18T00:03:11;100562.13;;;12.53;100.00
32320;BME280;19080;51.750;5.888;2023-03-18T00:05:37;100491.91;;;12.03;100.00
32320;BME280;19080;51.750;5.888;2023-03-18T00:08:05;100483.00;;;11.94;100.00
32320;BME280;19080;51.750;5.888;2023-03-18T00:10:32;100504.31;;;12.00;100.00
32320;BME280;19080;51.750;5.888;2023-03-18T00:13:01;100554.00;;;12.19;100.00
32320;BME280;19080;51.750;5.888;2023-03-18T00:15:30;100545.16;;;12.20;100.00
32320;BME280;19080;51.750;5.888;2023-03-18T00:17:57;100578.03;;;12.37;100.00
32320;BME280;19080;51.750;5.888;2023-03-18T00:20:25;100578.03;;;12.37;100.00
32320;BME280;19080;51.750;5.888;2023-03-18T00:23:05;100555.81;;;12.26;100.00
32320;BME280;19080;51.750;5.888;2023-03-18T00:25:36;100538.94;;;12.23;100.00
32320;BME280;19080;51.750;5.888;2023-03-18T00:28:04;100533.63;;;12.20;100.00
32320;BME280;19080;51.750;5.888;2023-03-18T00:30:33;100557.59;;;12.30;100.00
32320;BME280;19080;51.750;5.888;2023-03-18T00:33:00;100484.72;;;11.80;100.00
32320;BME280;19080;51.750;5.888;2023-03-18T00:35:27;100464.22;;;11.62;100.00
32320;BME280;19080;51.750;5.888;2023-03-18T00:37:54;100587.75;;;12.23;100.00
32320;BME280;19080;51.750;5.888;2023-03-18T00:40:20;100571.75;;;12.11;100.00
32320;BME280;19080;51.750;5.888;2023-03-18T00:42:54;100439.25;;;11.31;100.00
32320;BME280;19080;51.750;5.888;2023-03-18T00:45:27;100572.63;;;12.05;100.00
32320;BME280;19080;51.750;5.888;2023-03-18T00:47:53;100557.47;;;11.91;100.00
32320;BME280;19080;51.750;5.888;2023-03-18T00:50:20;100580.56;;;11.98;100.00
32320;BME280;19080;51.750;5.888;2023-03-18T00:52:47;100462.22;;;11.23;100.00
32320;BME280;19080;51.750;5.888;2023-03-18T00:55:14;100544.91;;;11.71;100.00
32320;BME280;19080;51.750;5.888;2023-03-18T00:57:41;100539.56;;;11.64;100.00
32320;BME280;19080;51.750;5.888;2023-03-18T01:00:09;100495.13;;;11.43;100.00
32320;BME280;19080;51.750;5.888;2023-03-18T01:02:37;100604.50;;;12.01;100.00
32320;BME280;19080;51.750;5.888;2023-03-18T01:05:04;100582.31;;;11.96;100.00
32320;BME280;19080;51.750;5.888;2023-03-18T01:07:31;100577.91;;;11.98;100.00
32320;BME280;19080;51.750;5.888;2023-03-18T01:09:57;100500.47;;;11.49;100.00
32320;BME280;19080;51.750;5.888;2023-03-18T01:12:24;100477.34;;;11.33;100.00
32320;BME280;19080;51.750;5.888;2023-03-18T01:14:51;100507.53;;;11.44;100.00
32320;BME280;19080;51.750;5.888;2023-03-18T01:17:18;100603.59;;;11.96;100.00
32320;BME280;19080;51.750;5.888;2023-03-18T01:19:44;100584.00;;;11.82;100.00
32320;BME280;19080;51.750;5.888;2023-03-18T01:22:11;100579.56;;;11.79;100.00
32320;BME280;19080;51.750;5.888;2023-03-18T01:24:43;100505.69;;;11.34;100.00
32320;BME280;19080;51.750;5.888;2023-03-18T01:27:12;100592.88;;;11.81;100.00
32320;BME280;19080;51.750;5.888;2023-03-18T01:29:41;100583.03;;;11.73;100.00
32320;BME280;19080;51.750;5.888;2023-03-18T01:32:14;100563.50;;;11.65;100.00
32320;BME280;19080;51.750;5.888;2023-03-18T01:34:41;100523.41;;;11.35;100.00
32320;BME280;19080;51.750;5.888;2023-03-18T01:37:08;100523.38;;;11.29;100.00
32320;BME280;19080;51.750;5.888;2023-03-18T01:39:38;100617.69;;;11.80;100.00
32320;BME280;19080;51.750;5.888;2023-03-18T01:42:11;100599.94;;;11.77;100.00
32320;BME280;19080;51.750;5.888;2023-03-18T01:44:37;100516.31;;;11.31;100.00
32320;BME280;19080;51.750;5.888;2023-03-18T01:47:04;100571.47;;;11.65;100.00
32320;BME280;19080;51.750;5.888;2023-03-18T01:49:45;100578.59;;;11.69;100.00
32320;BME280;19080;51.750;5.888;2023-03-18T01:52:16;100590.19;;;11.78;100.00
32320;BME280;19080;51.750;5.888;2023-03-18T01:55:02;100571.50;;;11.71;100.00
32320;BME280;19080;51.750;5.888;2023-03-18T01:57:31;100552.88;;;11.68;100.00
32320;BME280;19080;51.750;5.888;2023-03-18T01:59:59;100600.94;;;11.96;100.00
32320;BME280;19080;51.750;5.888;2023-03-18T02:02:28;100510.19;;;11.46;100.00
32320;BME280;19080;51.750;5.888;2023-03-18T02:05:00;100609.81;;;12.01;100.00
32320;BME280;19080;51.750;5.888;2023-03-18T02:07:30;100512.88;;;11.50;100.00
32320;BME280;19080;51.750;5.888;2023-03-18T02:09:59;100582.28;;;11.90;100.00
32320;BME280;19080;51.750;5.888;2023-03-18T02:12:30;100516.44;;;11.52;100.00
32320;BME280;19080;51.750;5.888;2023-03-18T02:15:01;100526.19;;;11.53;100.00
32320;BME280;19080;51.750;5.888;2023-03-18T02:17:32;100459.38;;;10.95;100.00
32320;BME280;19080;51.750;5.888;2023-03-18T02:22:40;100557.16;;;11.47;100.00
32320;BME280;19080;51.750;5.888;2023-03-18T02:25:22;100574.91;;;11.52;100.00
32320;BME280;19080;51.750;5.888;2023-03-18T02:27:53;100537.53;;;11.28;100.00
32320;BME280;19080;51.750;5.888;2023-03-18T02:30:26;100590.91;;;11.58;100.00
32320;BME280;19080;51.750;5.888;2023-03-18T02:32:55;100610.47;;;11.66;100.00
32320;BME280;19080;51.750;5.888;2023-03-18T02:35:23;100544.66;;;11.32;100.00
32320;BME280;19080;51.750;5.888;2023-03-18T02:37:52;100507.31;;;11.11;100.00
32320;BME280;19080;51.750;5.888;2023-03-18T02:40:31;100599.81;;;11.63;100.00
32320;BME280;19080;51.750;5.888;2023-03-18T02:43:24;100626.47;;;11.76;100.00
32320;BME280;19080;51.750;5.888;2023-03-18T02:48:35;100533.97;;;11.23;100.00
32320;BME280;19080;51.750;5.888;2023-03-18T02:51:05;100605.13;;;11.65;100.00
32320;BME280;19080;51.750;5.888;2023-03-18T02:53:33;100614.88;;;11.66;100.00
32320;BME280;19080;51.750;5.888;2023-03-18T02:56:00;100631.78;;;11.72;100.00
32320;BME280;19080;51.750;5.888;2023-03-18T02:58:28;100589.06;;;11.48;100.00
32320;BME280;19080;51.750;5.888;2023-03-18T03:00:57;100551.69;;;11.24;100.00
32320;BME280;19080;51.750;5.888;2023-03-18T03:03:24;100561.44;;;11.28;100.00
32320;BME280;19080;51.750;5.888;2023-03-18T03:05:52;100607.69;;;11.50;100.00
32320;BME280;19080;51.750;5.888;2023-03-18T03:08:21;100587.16;;;11.32;100.00
32320;BME280;19080;51.750;5.888;2023-03-18T03:10:49;100564.84;;;11.12;100.00
32320;BME280;19080;51.750;5.888;2023-03-18T03:13:19;100643.16;;;11.53;100.00
32320;BME280;19080;51.750;5.888;2023-03-18T03:15:47;100556.84;;;11.05;100.00
32320;BME280;19080;51.750;5.888;2023-03-18T03:18:15;100619.16;;;11.44;100.00
32320;BME280;19080;51.750;5.888;2023-03-18T03:20:42;100635.16;;;11.50;100.00
32320;BME280;19080;51.750;5.888;2023-03-18T03:23:13;100612.03;;;11.38;100.00
32320;BME280;19080;51.750;5.888;2023-03-18T03:25:40;100581.78;;;11.23;100.00
32320;BME280;19080;51.750;5.888;2023-03-18T03:28:07;100630.66;;;11.43;100.00
32320;BME280;19080;51.750;5.888;2023-03-18T03:30:34;100637.81;;;11.50;100.00
32320;BME280;19080;51.750;5.888;2023-03-18T03:33:03;100572.84;;;11.15;100.00
32320;BME280;19080;51.750;5.888;2023-03-18T03:35:30;100580.81;;;11.13;100.00
32320;BME280;19080;51.750;5.888;2023-03-18T03:37:57;100660.03;;;11.60;100.00
32320;BME280;19080;51.750;5.888;2023-03-18T03:40:24;100612.84;;;11.31;100.00
32320;BME280;19080;51.750;5.888;2023-03-18T03:42:51;100635.06;;;11.41;100.00
32320;BME280;19080;51.750;5.888;2023-03-18T03:45:18;100668.91;;;11.60;100.00
32320;BME280;19080;51.750;5.888;2023-03-18T03:47:46;100626.13;;;11.31;100.00
32320;BME280;19080;51.750;5.888;2023-03-18T03:50:15;100644.78;;;11.36;100.00
32320;BME280;19080;51.750;5.888;2023-03-18T03:52:42;100664.41;;;11.53;100.00
32320;BME280;19080;51.750;5.888;2023-03-18T03:55:12;100618.94;;;11.20;100.00
32320;BME280;19080;51.750;5.888;2023-03-18T03:57:39;100683.06;;;11.59;100.00
32320;BME280;19080;51.750;5.888;2023-03-18T04:00:10;100612.75;;;11.21;100.00
32320;BME280;19080;51.750;5.888;2023-03-18T04:02:46;100665.22;;;11.43;100.00
32320;BME280;19080;51.750;5.888;2023-03-18T04:05:15;100574.41;;;10.91;100.00
32320;BME280;19080;51.750;5.888;2023-03-18T04:07:43;100659.88;;;11.40;100.00
32320;BME280;19080;51.750;5.888;2023-03-18T04:10:13;100600.25;;;11.07;100.00
32320;BME280;19080;51.750;5.888;2023-03-18T04:12:41;100669.66;;;11.46;100.00
32320;BME280;19080;51.750;5.888;2023-03-18T04:15:08;100659.94;;;11.46;100.00
32320;BME280;19080;51.750;5.888;2023-03-18T04:17:35;100642.09;;;11.33;100.00
32320;BME280;19080;51.750;5.888;2023-03-18T04:20:03;100667.91;;;11.48;100.00
32320;BME280;19080;51.750;5.888;2023-03-18T04:22:31;100686.59;;;11.55;100.00
32320;BME280;19080;51.750;5.888;2023-03-18T04:25:00;100633.16;;;11.25;100.00
32320;BME280;19080;51.750;5.888;2023-03-18T04:27:27;100601.97;;;11.04;100.00
32320;BME280;19080;51.750;5.888;2023-03-18T04:29:55;100649.13;;;11.28;100.00
32320;BME280;19080;51.750;5.888;2023-03-18T04:32:28;100670.53;;;11.43;100.00
32320;BME280;19080;51.750;5.888;2023-03-18T04:34:55;100614.41;;;11.06;100.00
32320;BME280;19080;51.750;5.888;2023-03-18T04:37:22;100607.28;;;11.04;100.00
32320;BME280;19080;51.750;5.888;2023-03-18T04:39:53;100672.22;;;11.35;100.00
32320;BME280;19080;51.750;5.888;2023-03-18T04:42:21;100696.28;;;11.49;100.00
32320;BME280;19080;51.750;5.888;2023-03-18T04:44:48;100604.59;;;10.99;100.00
32320;BME280;19080;51.750;5.888;2023-03-18T04:47:15;100656.16;;;11.23;100.00
32320;BME280;19080;51.750;5.888;2023-03-18T04:49:42;100671.34;;;11.34;100.00
32320;BME280;19080;51.750;5.888;2023-03-18T04:52:11;100583.19;;;10.84;100.00
32320;BME280;19080;51.750;5.888;2023-03-18T04:54:38;100666.81;;;11.26;100.00
32320;BME280;19080;51.750;5.888;2023-03-18T04:57:05;100663.28;;;11.27;100.00
32320;BME280;19080;51.750;5.888;2023-03-18T04:59:37;100657.09;;;11.28;100.00
32320;BME280;19080;51.750;5.888;2023-03-18T05:02:05;100665.06;;;11.28;100.00
32320;BME280;19080;51.750;5.888;2023-03-18T05:04:34;100698.91;;;11.47;100.00
32320;BME280;19080;51.750;5.888;2023-03-18T05:07:01;100686.38;;;11.34;100.00
32320;BME280;19080;51.750;5.888;2023-03-18T05:09:33;100595.56;;;10.82;100.00
32320;BME280;19080;51.750;5.888;2023-03-18T05:12:00;100673.94;;;11.30;100.00
32320;BME280;19080;51.750;5.888;2023-03-18T05:14:31;100680.19;;;11.33;100.00
32320;BME280;19080;51.750;5.888;2023-03-18T05:16:59;100681.00;;;11.28;100.00
32320;BME280;19080;51.750;5.888;2023-03-18T05:19:27;100608.03;;;10.89;100.00
32320;BME280;19080;51.750;5.888;2023-03-18T05:22:11;100702.41;;;11.43;100.00
32320;BME280;19080;51.750;5.888;2023-03-18T05:24:39;100718.44;;;11.52;100.00
32320;BME280;19080;51.750;5.888;2023-03-18T05:27:06;100690.84;;;11.38;100.00
32320;BME280;19080;51.750;5.888;2023-03-18T05:29:37;100634.75;;;11.06;100.00
32320;BME280;19080;51.750;5.888;2023-03-18T05:32:13;100690.00;;;11.42;100.00
32320;BME280;19080;51.750;5.888;2023-03-18T05:34:41;100606.22;;;10.85;100.00
32320;BME280;19080;51.750;5.888;2023-03-18T05:37:11;100643.63;;;11.06;100.00
32320;BME280;19080;51.750;5.888;2023-03-18T05:39:43;100652.47;;;11.08;100.00
32320;BME280;19080;51.750;5.888;2023-03-18T05:42:14;100645.28;;;10.98;100.00
32320;BME280;19080;51.750;5.888;2023-03-18T05:44:41;100697.84;;;11.28;100.00
32320;BME280;19080;51.750;5.888;2023-03-18T05:47:10;100718.38;;;11.43;100.00
32320;BME280;19080;51.750;5.888;2023-03-18T05:49:56;100689.78;;;11.21;100.00
32320;BME280;19080;51.750;5.888;2023-03-18T05:52:23;100659.50;;;11.02;100.00
32320;BME280;19080;51.750;5.888;2023-03-18T05:54:53;100656.81;;;11.00;100.00
32320;BME280;19080;51.750;5.888;2023-03-18T05:57:25;100718.31;;;11.38;100.00
32320;BME280;19080;51.750;5.888;2023-03-18T05:59:57;100692.50;;;11.25;100.00
32320;BME280;19080;51.750;5.888;2023-03-18T06:02:25;100652.44;;;11.04;100.00
32320;BME280;19080;51.750;5.888;2023-03-18T06:04:53;100692.56;;;11.31;100.00
32320;BME280;19080;51.750;5.888;2023-03-18T06:07:19;100636.44;;;10.96;100.00
32320;BME280;19080;51.750;5.888;2023-03-18T06:09:47;100710.34;;;11.38;100.00
32320;BME280;19080;51.750;5.888;2023-03-18T06:12:13;100640.00;;;11.00;100.00
32320;BME280;19080;51.750;5.888;2023-03-18T06:14:41;100662.22;;;11.09;100.00
32320;BME280;19080;51.750;5.888;2023-03-18T06:17:07;100670.28;;;11.19;100.00
32320;BME280;19080;51.750;5.888;2023-03-18T06:19:34;100724.63;;;11.48;100.00
32320;BME280;19080;51.750;5.888;2023-03-18T06:22:01;100663.19;;;11.18;100.00
32320;BME280;19080;51.750;5.888;2023-03-18T06:24:28;100759.38;;;11.71;100.00
32320;BME280;19080;51.750;5.888;2023-03-18T06:26:56;100742.47;;;11.61;100.00
32320;BME280;19080;51.750;5.888;2023-03-18T06:29:23;100743.38;;;11.63;100.00
32320;BME280;19080;51.750;5.888;2023-03-18T06:31:53;100756.75;;;11.72;100.00
32320;BME280;19080;51.750;5.888;2023-03-18T06:34:23;100746.06;;;11.66;100.00
32320;BME280;19080;51.750;5.888;2023-03-18T06:36:50;100686.50;;;11.45;100.00
32320;BME280;19080;51.750;5.888;2023-03-18T06:39:18;100764.94;;;11.94;100.00
32320;BME280;19080;51.750;5.888;2023-03-18T06:41:45;100770.31;;;12.00;100.00
32320;BME280;19080;51.750;5.888;2023-03-18T06:44:28;100733.88;;;11.90;100.00
32320;BME280;19080;51.750;5.888;2023-03-18T06:47:00;100728.66;;;12.00;100.00
32320;BME280;19080;51.750;5.888;2023-03-18T06:49:30;100750.91;;;12.16;100.00
32320;BME280;19080;51.750;5.888;2023-03-18T06:52:06;100689.47;;;11.80;100.00
32320;BME280;19080;51.750;5.888;2023-03-18T06:54:33;100758.19;;;12.45;100.00
32320;BME280;19080;51.750;5.888;2023-03-18T06:57:00;100711.91;;;12.21;100.00
32320;BME280;19080;51.750;5.888;2023-03-18T06:59:27;100711.00;;;12.18;100.00
32320;BME280;19080;51.750;5.888;2023-03-18T07:01:54;100683.50;;;12.11;100.00
32320;BME280;19080;51.750;5.888;2023-03-18T07:04:21;100736.94;;;12.54;100.00
32320;BME280;19080;51.750;5.888;2023-03-18T07:06:50;100776.09;;;12.73;100.00
32320;BME280;19080;51.750;5.888;2023-03-18T07:09:18;100760.13;;;12.76;100.00
32320;BME280;19080;51.750;5.888;2023-03-18T07:11:50;100781.66;;;13.19;100.00
32320;BME280;19080;51.750;5.888;2023-03-18T07:14:20;100777.34;;;13.57;100.00
32320;BME280;19080;51.750;5.888;2023-03-18T07:16:47;100774.69;;;13.97;100.00
32320;BME280;19080;51.750;5.888;2023-03-18T07:19:14;100753.31;;;14.15;100.00
32320;BME280;19080;51.750;5.888;2023-03-18T07:21:44;100755.97;;;14.37;100.00
32320;BME280;19080;51.750;5.888;2023-03-18T07:24:11;100801.22;;;15.07;100.00
32320;BME280;19080;51.750;5.888;2023-03-18T07:26:39;100779.84;;;15.08;100.00
32320;BME280;19080;51.750;5.888;2023-03-18T07:29:08;100737.06;;;15.10;100.00
32320;BME280;19080;51.750;5.888;2023-03-18T07:31:34;100731.59;;;15.28;100.00
32320;BME280;19080;51.750;5.888;2023-03-18T07:34:02;100729.84;;;15.24;100.00
32320;BME280;19080;51.750;5.888;2023-03-18T07:36:30;100676.53;;;14.93;100.00
32320;BME280;19080;51.750;5.888;2023-03-18T07:38:57;100807.22;;;15.56;100.00
32320;BME280;19080;51.750;5.888;2023-03-18T07:41:25;100728.97;;;15.20;100.00
32320;BME280;19080;51.750;5.888;2023-03-18T07:43:52;100793.84;;;15.56;100.00
32320;BME280;19080;51.750;5.888;2023-03-18T07:46:19;100739.63;;;15.25;100.00
32320;BME280;19080;51.750;5.888;2023-03-18T07:48:46;100811.72;;;15.48;100.00
32320;BME280;19080;51.750;5.888;2023-03-18T07:51:14;100804.59;;;15.48;100.00
32320;BME280;19080;51.750;5.888;2023-03-18T07:53:41;100818.78;;;15.62;100.00
32320;BME280;19080;51.750;5.888;2023-03-18T07:56:08;100796.66;;;15.32;100.00
32320;BME280;19080;51.750;5.888;2023-03-18T07:58:36;100799.44;;;15.09;100.00
32320;BME280;19080;51.750;5.888;2023-03-18T08:01:04;100806.59;;;15.01;100.00
32320;BME280;19080;51.750;5.888;2023-03-18T08:03:31;100836.88;;;15.00;100.00
32320;BME280;19080;51.750;5.888;2023-03-18T08:05:58;100839.56;;;14.98;100.00
32320;BME280;19080;51.750;5.888;2023-03-18T08:08:24;100848.53;;;14.80;100.00
32320;BME280;19080;51.750;5.888;2023-03-18T08:10:56;100788.91;;;14.45;100.00
32320;BME280;19080;51.750;5.888;2023-03-18T08:13:22;100810.25;;;14.63;100.00
32320;BME280;19080;51.750;5.888;2023-03-18T08:15:51;100815.59;;;14.66;100.00
32320;BME280;19080;51.750;5.888;2023-03-18T08:18:18;100783.56;;;14.54;100.00
32320;BME280;19080;51.750;5.888;2023-03-18T08:20:45;100819.13;;;14.76;100.00
32320;BME280;19080;51.750;5.888;2023-03-18T08:23:11;100783.53;;;14.66;100.00
32320;BME280;19080;51.750;5.888;2023-03-18T08:25:38;100841.34;;;15.01;100.00
32320;BME280;19080;51.750;5.888;2023-03-18T08:28:05;100828.84;;;15.07;100.00
32320;BME280;19080;51.750;5.888;2023-03-18T08:30:34;100850.03;;;15.54;100.00
32320;BME280;19080;51.750;5.888;2023-03-18T08:33:01;100775.25;;;15.36;100.00
32320;BME280;19080;51.750;5.888;2023-03-18T08:35:28;100784.88;;;15.66;100.00
32320;BME280;19080;51.750;5.888;2023-03-18T08:37:54;100855.66;;;16.45;100.00
32320;BME280;19080;51.750;5.888;2023-03-18T08:40:21;100741.78;;;16.01;100.00
32320;BME280;19080;51.750;5.888;2023-03-18T08:42:48;100843.56;;;16.98;100.00
32320;BME280;19080;51.750;5.888;2023-03-18T08:45:15;100838.78;;;17.24;100.00
32320;BME280;19080;51.750;5.888;2023-03-18T08:47:42;100842.69;;;17.69;100.00
32320;BME280;19080;51.750;5.888;2023-03-18T08:50:10;100781.50;;;17.28;100.00
32320;BME280;19080;51.750;5.888;2023-03-18T08:52:37;100790.66;;;17.12;100.00
32320;BME280;19080;51.750;5.888;2023-03-18T08:55:05;100835.16;;;17.28;100.00
32320;BME280;19080;51.750;5.888;2023-03-18T08:57:33;100842.09;;;17.44;100.00
32320;BME280;19080;51.750;5.888;2023-03-18T09:00:00;100769.56;;;16.81;100.00
32320;BME280;19080;51.750;5.888;2023-03-18T09:02:26;100780.31;;;16.81;100.00
32320;BME280;19080;51.750;5.888;2023-03-18T09:04:53;100784.94;;;17.36;100.00
32320;BME280;19080;51.750;5.888;2023-03-18T09:07:21;100767.25;;;17.24;100.00
32320;BME280;19080;51.750;5.888;2023-03-18T09:09:47;100788.72;;;17.23;100.00
32320;BME280;19080;51.750;5.888;2023-03-18T09:12:14;100846.06;;;17.83;100.00
32320;BME280;19080;51.750;5.888;2023-03-18T09:14:41;100847.03;;;18.87;100.00
32320;BME280;19080;51.750;5.888;2023-03-18T09:17:09;100850.34;;;19.86;100.00
32320;BME280;19080;51.750;5.888;2023-03-18T09:19:35;100848.06;;;20.45;100.00
32320;BME280;19080;51.750;5.888;2023-03-18T09:22:03;100855.03;;;20.54;100.00
32320;BME280;19080;51.750;5.888;2023-03-18T09:24:29;100839.34;;;20.69;100.00
32320;BME280;19080;51.750;5.888;2023-03-18T09:26:57;100843.53;;;21.12;100.00
32320;BME280;19080;51.750;5.888;2023-03-18T09:29:25;100744.38;;;20.88;97.13
32320;BME280;19080;51.750;5.888;2023-03-18T09:31:52;100806.75;;;21.40;91.19
32320;BME280;19080;51.750;5.888;2023-03-18T09:34:19;100784.66;;;21.56;88.08
32320;BME280;19080;51.750;5.888;2023-03-18T09:36:46;100827.63;;;21.93;76.52
32320;BME280;19080;51.750;5.888;2023-03-18T09:39:17;100777.78;;;21.46;78.00
32320;BME280;19080;51.750;5.888;2023-03-18T09:44:29;100780.66;;;21.69;82.71
32320;BME280;19080;51.750;5.888;2023-03-18T09:52:47;100809.47;;;23.50;64.20
32320;BME280;19080;51.750;5.888;2023-03-18T09:55:36;100849.06;;;24.23;61.41
32320;BME280;19080;51.750;5.888;2023-03-18T09:58:18;100749.41;;;23.62;61.01
32320;BME280;19080;51.750;5.888;2023-03-18T10:00:46;100842.22;;;23.91;60.84
32320;BME280;19080;51.750;5.888;2023-03-18T10:05:59;100861.25;;;24.77;53.24
32320;BME280;19080;51.750;5.888;2023-03-18T10:08:57;100871.75;;;24.64;52.66
32320;BME280;19080;51.750;5.888;2023-03-18T10:11:39;100839.44;;;24.58;53.83
32320;BME280;19080;51.750;5.888;2023-03-18T10:17:15;100822.50;;;24.93;50.97
32320;BME280;19080;51.750;5.888;2023-03-18T10:19:47;100811.19;;;25.04;51.13
32320;BME280;19080;51.750;5.888;2023-03-18T10:28:15;100868.09;;;25.07;51.59
32320;BME280;19080;51.750;5.888;2023-03-18T10:31:00;100864.97;;;25.16;49.79
32320;BME280;19080;51.750;5.888;2023-03-18T10:36:29;100858.59;;;24.33;52.70
32320;BME280;19080;51.750;5.888;2023-03-18T10:38:58;100857.38;;;23.96;52.59
32320;BME280;19080;51.750;5.888;2023-03-18T10:41:31;100843.66;;;23.54;54.22
32320;BME280;19080;51.750;5.888;2023-03-18T10:44:04;100811.09;;;23.56;54.19
32320;BME280;19080;51.750;5.888;2023-03-18T10:46:34;100838.72;;;24.11;51.68
32320;BME280;19080;51.750;5.888;2023-03-18T10:49:10;100819.53;;;24.37;50.23
32320;BME280;19080;51.750;5.888;2023-03-18T10:51:57;100856.50;;;24.82;51.54
32320;BME280;19080;51.750;5.888;2023-03-18T10:57:02;100821.16;;;25.82;47.81
32320;BME280;19080;51.750;5.888;2023-03-18T10:59:29;100778.78;;;25.39;46.13
32320;BME280;19080;51.750;5.888;2023-03-18T11:01:59;100858.81;;;24.91;48.43
32320;BME280;19080;51.750;5.888;2023-03-18T11:04:27;100793.50;;;24.94;47.41
32320;BME280;19080;51.750;5.888;2023-03-18T11:07:06;100849.56;;;25.56;48.19
32320;BME280;19080;51.750;5.888;2023-03-18T11:09:36;100774.31;;;25.38;45.56
32320;BME280;19080;51.750;5.888;2023-03-18T11:12:12;100837.03;;;25.72;47.13
32320;BME280;19080;51.750;5.888;2023-03-18T11:14:39;100837.72;;;26.13;45.44
32320;BME280;19080;51.750;5.888;2023-03-18T11:17:47;100832.41;;;25.35;46.84
32320;BME280;19080;51.750;5.888;2023-03-18T11:22:48;100757.34;;;24.11;48.42
32320;BME280;19080;51.750;5.888;2023-03-18T11:25:24;100746.25;;;23.73;49.93
32320;BME280;19080;51.750;5.888;2023-03-18T11:28:03;100778.09;;;24.74;48.17
32320;BME280;19080;51.750;5.888;2023-03-18T11:30:47;100761.63;;;25.57;45.29
32320;BME280;19080;51.750;5.888;2023-03-18T11:33:15;100760.66;;;25.39;47.41
32320;BME280;19080;51.750;5.888;2023-03-18T11:35:49;100839.41;;;24.80;46.28
32320;BME280;19080;51.750;5.888;2023-03-18T11:38:41;100756.53;;;23.18;50.10
32320;BME280;19080;51.750;5.888;2023-03-18T11:43:35;100739.06;;;25.36;44.65
32320;BME280;19080;51.750;5.888;2023-03-18T11:46:07;100780.84;;;26.97;44.14
32320;BME280;19080;51.750;5.888;2023-03-18T11:48:36;100814.00;;;28.64;40.56
32320;BME280;19080;51.750;5.888;2023-03-18T11:51:32;100745.03;;;28.90;38.41
32320;BME280;19080;51.750;5.888;2023-03-18T11:54:16;100811.53;;;27.33;40.46
32320;BME280;19080;51.750;5.888;2023-03-18T11:57:40;100800.38;;;25.23;44.19
32320;BME280;19080;51.750;5.888;2023-03-18T12:00:04;100815.56;;;23.57;46.86
32320;BME280;19080;51.750;5.888;2023-03-18T12:11:44;100840.88;;;20.79;57.76
32320;BME280;19080;51.750;5.888;2023-03-18T12:14:29;100822.38;;;20.29;61.92
32320;BME280;19080;51.750;5.888;2023-03-18T12:17:23;100836.88;;;20.25;65.65
32320;BME280;19080;51.750;5.888;2023-03-18T12:25:50;100816.69;;;19.67;74.81
32320;BME280;19080;51.750;5.888;2023-03-18T12:31:30;100832.25;;;19.53;78.20
32320;BME280;19080;51.750;5.888;2023-03-18T12:34:02;100800.94;;;19.47;77.99
32320;BME280;19080;51.750;5.888;2023-03-18T12:36:55;100752.31;;;19.14;76.40
32320;BME280;19080;51.750;5.888;2023-03-18T12:45:26;100809.09;;;19.42;82.49
32320;BME280;19080;51.750;5.888;2023-03-18T12:50:38;100761.66;;;18.98;87.34
32320;BME280;19080;51.750;5.888;2023-03-18T12:53:14;100750.72;;;18.61;90.18
32320;BME280;19080;51.750;5.888;2023-03-18T12:55:45;100815.78;;;18.81;95.79
32320;BME280;19080;51.750;5.888;2023-03-18T12:58:17;100831.16;;;18.73;92.09
32320;BME280;19080;51.750;5.888;2023-03-18T13:00:58;100838.66;;;18.53;92.95
32320;BME280;19080;51.750;5.888;2023-03-18T13:03:35;100754.41;;;18.05;97.84
32320;BME280;19080;51.750;5.888;2023-03-18T13:06:15;100805.91;;;18.30;98.65
32320;BME280;19080;51.750;5.888;2023-03-18T13:08:50;100771.56;;;17.96;99.65
32320;BME280;19080;51.750;5.888;2023-03-18T13:14:47;100841.81;;;18.26;100.00
32320;BME280;19080;51.750;5.888;2023-03-18T13:17:41;100844.59;;;18.19;100.00
32320;BME280;19080;51.750;5.888;2023-03-18T13:20:12;100842.69;;;18.28;100.00
32320;BME280;19080;51.750;5.888;2023-03-18T13:33:34;100829.53;;;21.30;72.36
32320;BME280;19080;51.750;5.888;2023-03-18T13:44:47;100829.78;;;20.21;82.54
32320;BME280;19080;51.750;5.888;2023-03-18T13:47:19;100813.19;;;20.39;79.94
32320;BME280;19080;51.750;5.888;2023-03-18T13:49:47;100818.56;;;20.02;79.99
32320;BME280;19080;51.750;5.888;2023-03-18T13:52:35;100747.41;;;19.33;83.70
32320;BME280;19080;51.750;5.888;2023-03-18T13:55:26;100826.13;;;19.44;78.13
32320;BME280;19080;51.750;5.888;2023-03-18T14:00:32;100819.34;;;18.82;81.74
32320;BME280;19080;51.750;5.888;2023-03-18T14:03:12;100822.22;;;18.73;90.13
32320;BME280;19080;51.750;5.888;2023-03-18T14:05:42;100835.06;;;18.54;100.00
32320;BME280;19080;51.750;5.888;2023-03-18T14:13:54;100809.94;;;18.04;100.00
32320;BME280;19080;51.750;5.888;2023-03-18T14:16:26;100806.38;;;18.02;100.00
32320;BME280;19080;51.750;5.888;2023-03-18T14:19:00;100812.97;;;18.37;100.00
32320;BME280;19080;51.750;5.888;2023-03-18T14:21:32;100793.31;;;18.84;100.00
32320;BME280;19080;51.750;5.888;2023-03-18T14:26:38;100788.38;;;18.61;100.00
32320;BME280;19080;51.750;5.888;2023-03-18T14:39:37;100797.88;;;18.30;100.00
32320;BME280;19080;51.750;5.888;2023-03-18T14:42:29;100792.22;;;18.45;100.00
32320;BME280;19080;51.750;5.888;2023-03-18T14:45:47;100794.03;;;18.43;100.00
32320;BME280;19080;51.750;5.888;2023-03-18T14:47:54;100708.78;;;18.03;97.89